createdAt,value
2019-02-28T00:00:06.517Z,0
2019-02-28T00:01:19.931Z,0
2019-02-28T00:02:32.197Z,0
2019-02-28T00:03:42.314Z,0
2019-02-28T00:04:52.426Z,0
2019-02-28T00:06:02.547Z,0
2019-02-28T00:07:17.434Z,0
2019-02-28T00:08:27.924Z,0
2019-02-28T00:09:38.039Z,0
2019-02-28T00:10:48.152Z,0
2019-02-28T00:11:58.267Z,0
2019-02-28T00:13:08.027Z,0
2019-02-28T00:14:18.145Z,0
2019-02-28T00:15:29.622Z,0
2019-02-28T00:16:43.505Z,0
2019-02-28T00:17:53.254Z,0
2019-02-28T00:19:03.373Z,0
2019-02-28T00:20:13.235Z,0
2019-02-28T00:21:23.423Z,0
2019-02-28T00:22:33.542Z,0
2019-02-28T00:23:43.698Z,0
2019-02-28T00:24:53.800Z,0
2019-02-28T00:26:03.908Z,0
2019-02-28T00:27:14.052Z,0
2019-02-28T00:28:27.917Z,0
2019-02-28T00:29:43.294Z,0
2019-02-28T00:30:53.406Z,0
2019-02-28T00:32:03.503Z,0
2019-02-28T00:33:13.624Z,0
2019-02-28T00:34:23.732Z,0
2019-02-28T00:35:33.839Z,0
2019-02-28T00:36:44.003Z,0
2019-02-28T00:37:56.599Z,0
2019-02-28T00:39:11.350Z,0
2019-02-28T00:40:21.513Z,0
2019-02-28T00:41:31.612Z,0
2019-02-28T00:42:41.714Z,0
2019-02-28T00:43:51.809Z,0
2019-02-28T00:45:04.845Z,0
2019-02-28T00:46:19.373Z,0
2019-02-28T00:47:29.500Z,0
2019-02-28T00:48:39.608Z,0
2019-02-28T00:49:49.711Z,0
2019-02-28T00:51:01.551Z,0
2019-02-28T00:52:11.975Z,0
2019-02-28T00:53:22.108Z,0
2019-02-28T00:54:32.231Z,0
2019-02-28T00:55:42.356Z,0
2019-02-28T00:56:56.446Z,0
2019-02-28T00:58:06.557Z,0
2019-02-28T00:59:16.652Z,0
2019-02-28T01:00:26.766Z,0
2019-02-28T01:01:36.882Z,0
2019-02-28T01:02:51.860Z,0
2019-02-28T01:04:05.279Z,0
2019-02-28T01:05:15.761Z,0
2019-02-28T01:06:25.862Z,0
2019-02-28T01:07:35.993Z,0
2019-02-28T01:08:46.118Z,0
2019-02-28T01:09:56.215Z,0
2019-02-28T01:11:06.313Z,0
2019-02-28T01:12:21.351Z,0
2019-02-28T01:13:34.279Z,0
2019-02-28T01:14:46.231Z,0
2019-02-28T01:15:56.358Z,0
2019-02-28T01:17:06.481Z,0
2019-02-28T01:18:16.580Z,0
2019-02-28T01:19:26.703Z,0
2019-02-28T01:20:36.826Z,0
2019-02-28T01:21:46.948Z,0
2019-02-28T01:22:58.430Z,0
2019-02-28T01:24:10.426Z,0
2019-02-28T01:25:20.596Z,0
2019-02-28T01:26:32.939Z,0
2019-02-28T01:27:43.063Z,0
2019-02-28T01:28:53.177Z,0
2019-02-28T01:30:03.290Z,0
2019-02-28T01:31:16.496Z,0
2019-02-28T01:32:26.610Z,0
2019-02-28T01:33:36.723Z,0
2019-02-28T01:34:46.821Z,0
2019-02-28T01:35:56.943Z,0
2019-02-28T01:37:07.036Z,0
2019-02-28T01:38:17.131Z,0
2019-02-28T01:39:29.789Z,0
2019-02-28T01:40:44.696Z,0
2019-02-28T01:41:55.567Z,0
2019-02-28T01:43:05.434Z,0
2019-02-28T01:44:15.291Z,0
2019-02-28T01:45:25.398Z,0
2019-02-28T01:46:35.509Z,0
2019-02-28T01:47:45.615Z,0
2019-02-28T01:48:57.520Z,0
2019-02-28T01:50:08.518Z,0
2019-02-28T01:51:18.622Z,0
2019-02-28T01:52:28.730Z,0
2019-02-28T01:53:38.835Z,0
2019-02-28T01:54:48.965Z,0
2019-02-28T01:56:02.180Z,0
2019-02-28T01:57:13.581Z,0
2019-02-28T01:58:26.311Z,0
2019-02-28T01:59:36.414Z,0
2019-02-28T02:00:46.522Z,0
2019-02-28T02:01:56.366Z,0
2019-02-28T02:03:09.477Z,0
2019-02-28T02:04:22.285Z,0
2019-02-28T02:05:32.410Z,0
2019-02-28T02:06:42.519Z,0
2019-02-28T02:07:52.628Z,0
2019-02-28T02:09:02.737Z,0
2019-02-28T02:10:12.832Z,0
2019-02-28T02:11:22.688Z,0
2019-02-28T02:12:36.326Z,0
2019-02-28T02:13:46.879Z,0
2019-02-28T02:14:56.976Z,0
2019-02-28T02:16:07.078Z,0
2019-02-28T02:17:17.185Z,0
2019-02-28T02:18:27.027Z,0
2019-02-28T02:19:37.127Z,0
2019-02-28T02:20:47.229Z,0
2019-02-28T02:21:57.333Z,0
2019-02-28T02:23:07.437Z,0
2019-02-28T02:24:17.546Z,0
2019-02-28T02:25:27.660Z,0
2019-02-28T02:26:37.775Z,0
2019-02-28T02:27:52.766Z,0
2019-02-28T02:29:08.019Z,0
2019-02-28T02:30:23.613Z,0
2019-02-28T02:31:38.639Z,0
2019-02-28T02:32:48.765Z,0
2019-02-28T02:34:02.225Z,0
2019-02-28T02:35:17.854Z,0
2019-02-28T02:36:27.969Z,0
2019-02-28T02:37:40.898Z,0
2019-02-28T02:38:51.522Z,0
2019-02-28T02:40:01.642Z,0
2019-02-28T02:41:14.450Z,0
2019-02-28T02:42:24.572Z,0
2019-02-28T02:43:34.702Z,0
2019-02-28T02:44:44.821Z,0
2019-02-28T02:45:54.938Z,0
2019-02-28T02:47:06.631Z,0
2019-02-28T02:48:16.772Z,0
2019-02-28T02:49:29.643Z,0
2019-02-28T02:50:44.067Z,0
2019-02-28T02:51:58.862Z,0
2019-02-28T02:53:14.893Z,0
2019-02-28T02:54:29.673Z,0
2019-02-28T02:55:39.784Z,0
2019-02-28T02:56:51.682Z,0
2019-02-28T02:58:01.539Z,0
2019-02-28T02:59:12.037Z,0
2019-02-28T03:00:24.488Z,0
2019-02-28T03:01:34.600Z,0
2019-02-28T03:02:44.720Z,0
2019-02-28T03:03:54.823Z,0
2019-02-28T03:05:08.997Z,0
2019-02-28T03:06:23.743Z,0
2019-02-28T03:07:34.720Z,0
2019-02-28T03:08:46.955Z,0
2019-02-28T03:09:57.128Z,0
2019-02-28T03:11:06.971Z,0
2019-02-28T03:12:17.080Z,0
2019-02-28T03:13:27.211Z,0
2019-02-28T03:14:37.337Z,0
2019-02-28T03:15:47.477Z,0
2019-02-28T03:16:57.599Z,0
2019-02-28T03:18:07.762Z,0
2019-02-28T03:19:17.870Z,0
2019-02-28T03:20:27.986Z,0
2019-02-28T03:21:38.106Z,0
2019-02-28T03:22:48.269Z,0
2019-02-28T03:23:58.419Z,0
2019-02-28T03:25:08.574Z,0
2019-02-28T03:26:18.705Z,0
2019-02-28T03:27:29.842Z,0
2019-02-28T03:28:42.712Z,0
2019-02-28T03:29:54.376Z,0
2019-02-28T03:31:18.146Z,0
2019-02-28T03:32:38.961Z,0
2019-02-28T03:33:50.059Z,0
2019-02-28T03:35:08.196Z,0
2019-02-28T03:36:21.368Z,0
2019-02-28T03:37:37.855Z,0
2019-02-28T03:38:55.873Z,0
2019-02-28T03:40:12.649Z,0
2019-02-28T03:41:27.535Z,0
2019-02-28T03:42:38.677Z,0
2019-02-28T03:43:53.777Z,0
2019-02-28T03:45:07.495Z,0
2019-02-28T03:46:20.879Z,0
2019-02-28T03:47:33.776Z,0
2019-02-28T03:48:45.831Z,0
2019-02-28T03:49:59.588Z,0
2019-02-28T03:51:09.455Z,0
2019-02-28T03:52:19.625Z,0
2019-02-28T03:53:30.820Z,0
2019-02-28T03:54:40.958Z,0
2019-02-28T03:55:51.414Z,0
2019-02-28T03:57:03.111Z,0
2019-02-28T03:58:14.925Z,0
2019-02-28T03:59:29.549Z,0
2019-02-28T04:00:43.715Z,0
2019-02-28T04:01:56.086Z,0
2019-02-28T04:03:07.879Z,0
2019-02-28T04:04:21.975Z,0
2019-02-28T04:05:37.563Z,0
2019-02-28T04:06:50.539Z,0
2019-02-28T04:08:04.153Z,0
2019-02-28T04:09:18.266Z,0
2019-02-28T04:10:31.935Z,0
2019-02-28T04:11:42.067Z,0
2019-02-28T04:12:56.439Z,0
2019-02-28T04:14:06.689Z,0
2019-02-28T04:15:19.950Z,0
2019-02-28T04:16:30.067Z,0
2019-02-28T04:17:41.335Z,0
2019-02-28T04:18:56.000Z,0
2019-02-28T04:20:09.831Z,0
2019-02-28T04:21:21.739Z,0
2019-02-28T04:22:32.895Z,0
2019-02-28T04:23:46.513Z,0
2019-02-28T04:24:57.468Z,0
2019-02-28T04:26:07.684Z,0
2019-02-28T04:27:17.818Z,0
2019-02-28T04:28:28.790Z,0
2019-02-28T04:29:40.986Z,0
2019-02-28T04:30:53.580Z,0
2019-02-28T04:32:05.413Z,0
2019-02-28T04:33:15.527Z,0
2019-02-28T04:34:25.661Z,0
2019-02-28T04:35:35.777Z,0
2019-02-28T04:36:46.311Z,0
2019-02-28T04:37:57.069Z,0
2019-02-28T04:39:07.172Z,0
2019-02-28T04:40:17.283Z,0
2019-02-28T04:41:27.133Z,0
2019-02-28T04:42:39.143Z,0
2019-02-28T04:43:53.404Z,0
2019-02-28T04:45:03.512Z,0
2019-02-28T04:46:13.612Z,0
2019-02-28T04:47:23.717Z,0
2019-02-28T04:48:33.812Z,0
2019-02-28T04:49:43.914Z,0
2019-02-28T04:50:54.028Z,0
2019-02-28T04:52:04.133Z,0
2019-02-28T04:53:14.243Z,0
2019-02-28T04:54:27.792Z,0
2019-02-28T04:55:42.684Z,0
2019-02-28T04:56:55.352Z,0
2019-02-28T04:58:05.206Z,0
2019-02-28T04:59:15.304Z,0
2019-02-28T05:00:25.403Z,0
2019-02-28T05:01:35.514Z,0
2019-02-28T05:02:45.613Z,0
2019-02-28T05:03:59.109Z,0
2019-02-28T05:05:17.108Z,0
2019-02-28T05:06:30.213Z,0
2019-02-28T05:07:40.321Z,0
2019-02-28T05:08:50.434Z,0
2019-02-28T05:10:00.567Z,0
2019-02-28T05:11:10.672Z,0
2019-02-28T05:12:20.551Z,0
2019-02-28T05:13:30.656Z,0
2019-02-28T05:14:40.866Z,0
2019-02-28T05:15:50.986Z,0
2019-02-28T05:17:01.086Z,0
2019-02-28T05:18:10.967Z,0
2019-02-28T05:19:21.095Z,0
2019-02-28T05:20:32.836Z,0
2019-02-28T05:21:42.805Z,0
2019-02-28T05:22:52.926Z,0
2019-02-28T05:24:03.028Z,0
2019-02-28T05:25:17.279Z,0
2019-02-28T05:26:32.934Z,0
2019-02-28T05:27:45.560Z,0
2019-02-28T05:28:55.677Z,0
2019-02-28T05:30:05.804Z,0
2019-02-28T05:31:15.908Z,0
2019-02-28T05:32:26.023Z,0
2019-02-28T05:33:38.286Z,0
2019-02-28T05:34:57.874Z,0
2019-02-28T05:36:11.553Z,0
2019-02-28T05:37:22.758Z,0
2019-02-28T05:38:32.912Z,0
2019-02-28T05:39:43.711Z,0
2019-02-28T05:40:55.462Z,0
2019-02-28T05:42:05.667Z,0
2019-02-28T05:43:15.779Z,0
2019-02-28T05:44:26.253Z,0
2019-02-28T05:45:36.362Z,0
2019-02-28T05:46:46.457Z,0
2019-02-28T05:47:57.214Z,0
2019-02-28T05:49:08.618Z,0
2019-02-28T05:50:22.814Z,0
2019-02-28T05:51:34.613Z,0
2019-02-28T05:52:44.724Z,0
2019-02-28T05:53:54.622Z,0
2019-02-28T05:55:05.153Z,0
2019-02-28T05:56:15.259Z,0
2019-02-28T05:57:25.403Z,0
2019-02-28T05:58:35.505Z,0
2019-02-28T05:59:45.622Z,5
2019-02-28T06:00:55.725Z,5
2019-02-28T06:02:05.862Z,5
2019-02-28T06:03:15.957Z,5
2019-02-28T06:04:26.103Z,5
2019-02-28T06:05:36.235Z,5
2019-02-28T06:06:46.331Z,5
2019-02-28T06:07:56.427Z,10
2019-02-28T06:09:06.306Z,10
2019-02-28T06:10:16.408Z,10
2019-02-28T06:11:26.519Z,10
2019-02-28T06:12:36.637Z,10
2019-02-28T06:13:49.573Z,15
2019-02-28T06:15:09.480Z,15
2019-02-28T06:16:22.293Z,15
2019-02-28T06:17:32.407Z,15
2019-02-28T06:18:43.255Z,20
2019-02-28T06:19:53.993Z,20
2019-02-28T06:21:04.130Z,20
2019-02-28T06:22:14.225Z,20
2019-02-28T06:23:24.342Z,25
2019-02-28T06:24:34.452Z,25
2019-02-28T06:25:44.565Z,25
2019-02-28T06:26:54.435Z,25
2019-02-28T06:28:04.538Z,30
2019-02-28T06:29:15.489Z,30
2019-02-28T06:30:27.660Z,30
2019-02-28T06:31:39.321Z,30
2019-02-28T06:32:49.458Z,35
2019-02-28T06:34:01.880Z,35
2019-02-28T06:35:15.823Z,35
2019-02-28T06:36:31.408Z,40
2019-02-28T06:37:45.309Z,40
2019-02-28T06:38:59.155Z,40
2019-02-28T06:40:09.273Z,40
2019-02-28T06:41:19.371Z,40
2019-02-28T06:42:29.491Z,45
2019-02-28T06:43:39.604Z,50
2019-02-28T06:44:49.710Z,50
2019-02-28T06:46:00.784Z,50
2019-02-28T06:47:14.110Z,55
2019-02-28T06:48:31.578Z,55
2019-02-28T06:49:48.203Z,55
2019-02-28T06:50:58.044Z,60
2019-02-28T06:52:08.154Z,60
2019-02-28T06:53:18.325Z,60
2019-02-28T06:54:28.447Z,65
2019-02-28T06:55:38.559Z,65
2019-02-28T06:56:48.676Z,65
2019-02-28T06:58:01.415Z,65
2019-02-28T06:59:14.653Z,65
2019-02-28T07:00:24.989Z,70
2019-02-28T07:01:37.043Z,70
2019-02-28T07:02:47.153Z,70
2019-02-28T07:04:03.234Z,75
2019-02-28T07:05:13.364Z,75
2019-02-28T07:06:23.119Z,80
2019-02-28T07:07:33.230Z,80
2019-02-28T07:08:43.141Z,80
2019-02-28T07:09:53.247Z,75
2019-02-28T07:11:03.372Z,85
2019-02-28T07:12:15.692Z,90
2019-02-28T07:13:25.799Z,95
2019-02-28T07:14:35.907Z,95
2019-02-28T07:15:46.022Z,90
2019-02-28T07:16:56.146Z,95
2019-02-28T07:18:06.354Z,100
2019-02-28T07:19:16.465Z,105
2019-02-28T07:20:26.577Z,110
2019-02-28T07:21:45.468Z,115
2019-02-28T07:23:00.518Z,120
2019-02-28T07:24:12.261Z,110
2019-02-28T07:25:23.524Z,125
2019-02-28T07:26:33.653Z,130
2019-02-28T07:27:43.533Z,130
2019-02-28T07:28:53.643Z,130
2019-02-28T07:30:03.760Z,135
2019-02-28T07:31:13.879Z,140
2019-02-28T07:32:23.987Z,145
2019-02-28T07:33:34.948Z,175
2019-02-28T07:34:45.071Z,230
2019-02-28T07:35:55.170Z,260
2019-02-28T07:37:05.291Z,285
2019-02-28T07:38:15.447Z,295
2019-02-28T07:39:25.228Z,310
2019-02-28T07:40:35.767Z,325
2019-02-28T07:41:46.281Z,340
2019-02-28T07:42:56.379Z,355
2019-02-28T07:44:06.546Z,365
2019-02-28T07:45:17.053Z,370
2019-02-28T07:46:27.204Z,380
2019-02-28T07:47:37.357Z,405
2019-02-28T07:48:47.237Z,400
2019-02-28T07:49:59.731Z,415
2019-02-28T07:51:09.622Z,425
2019-02-28T07:52:20.429Z,430
2019-02-28T07:53:30.626Z,440
2019-02-28T07:54:41.123Z,455
2019-02-28T07:55:51.231Z,460
2019-02-28T07:57:01.361Z,470
2019-02-28T07:58:11.472Z,480
2019-02-28T07:59:21.638Z,480
2019-02-28T08:00:31.773Z,495
2019-02-28T08:01:41.898Z,495
2019-02-28T08:02:52.102Z,500
2019-02-28T08:04:02.213Z,520
2019-02-28T08:05:12.744Z,535
2019-02-28T08:06:22.873Z,545
2019-02-28T08:07:33.016Z,570
2019-02-28T08:08:43.135Z,605
2019-02-28T08:09:53.283Z,635
2019-02-28T08:11:03.138Z,625
2019-02-28T08:12:14.646Z,655
2019-02-28T08:13:24.764Z,665
2019-02-28T08:14:35.137Z,685
2019-02-28T08:15:45.254Z,690
2019-02-28T08:16:55.117Z,705
2019-02-28T08:18:05.882Z,600
2019-02-28T08:19:16.109Z,585
2019-02-28T08:20:26.260Z,715
2019-02-28T08:21:36.479Z,725
2019-02-28T08:22:46.356Z,710
2019-02-28T08:23:56.534Z,700
2019-02-28T08:25:10.284Z,700
2019-02-28T08:26:25.723Z,695
2019-02-28T08:27:35.925Z,695
2019-02-28T08:28:46.370Z,650
2019-02-28T08:29:56.479Z,705
2019-02-28T08:31:10.807Z,710
2019-02-28T08:32:20.963Z,715
2019-02-28T08:33:33.049Z,735
2019-02-28T08:34:46.809Z,745
2019-02-28T08:35:57.057Z,765
2019-02-28T08:37:07.181Z,765
2019-02-28T08:38:22.783Z,780
2019-02-28T08:39:34.232Z,790
2019-02-28T08:40:50.260Z,795
2019-02-28T08:42:07.971Z,650
2019-02-28T08:43:31.907Z,635
2019-02-28T08:45:57.177Z,530
2019-02-28T08:47:07.293Z,605
2019-02-28T08:48:19.267Z,630
2019-02-28T08:52:07.547Z,845
2019-02-28T08:53:22.126Z,845
2019-02-28T08:54:35.416Z,865
2019-02-28T08:55:51.536Z,855
2019-02-28T08:57:01.649Z,745
2019-02-28T09:00:48.006Z,900
2019-02-28T09:03:16.499Z,930
2019-02-28T09:04:26.259Z,920
2019-02-28T09:06:52.366Z,935
2019-02-28T09:08:03.142Z,955
2019-02-28T09:09:14.634Z,955
2019-02-28T09:10:24.848Z,950
2019-02-28T09:11:34.711Z,965
2019-02-28T09:12:47.192Z,975
2019-02-28T09:16:32.069Z,1000
2019-02-28T09:17:42.701Z,1000
2019-02-28T09:18:57.415Z,1015
2019-02-28T09:20:14.914Z,1020
2019-02-28T09:21:27.904Z,1030
2019-02-28T09:22:38.061Z,1040
2019-02-28T09:23:48.309Z,1050
2019-02-28T09:24:58.435Z,1065
2019-02-28T09:26:10.395Z,1040
2019-02-28T09:27:21.676Z,980
2019-02-28T09:28:31.807Z,1015
2019-02-28T09:29:49.220Z,1045
2019-02-28T09:31:01.297Z,1080
2019-02-28T09:32:22.381Z,945
2019-02-28T09:33:33.617Z,880
2019-02-28T09:34:43.863Z,910
2019-02-28T09:35:56.069Z,925
2019-02-28T09:37:06.566Z,955
2019-02-28T09:38:22.778Z,875
2019-02-28T09:39:32.930Z,800
2019-02-28T09:40:43.787Z,805
2019-02-28T09:41:53.906Z,815
2019-02-28T09:43:04.016Z,940
2019-02-28T09:44:14.591Z,820
2019-02-28T09:45:24.713Z,780
2019-02-28T09:46:35.074Z,990
2019-02-28T09:47:44.955Z,915
2019-02-28T09:48:55.106Z,795
2019-02-28T09:50:05.512Z,885
2019-02-28T09:51:16.090Z,1050
2019-02-28T09:52:27.818Z,785
2019-02-28T09:53:37.943Z,1130
2019-02-28T09:54:49.545Z,1240
2019-02-28T09:55:59.700Z,1245
2019-02-28T09:57:10.846Z,1255
2019-02-28T09:58:21.014Z,1230
2019-02-28T09:59:30.922Z,1135
2019-02-28T10:00:43.205Z,1210
2019-02-28T10:02:10.711Z,1265
2019-02-28T10:03:25.369Z,1250
2019-02-28T10:04:39.739Z,1260
2019-02-28T10:05:53.097Z,1240
2019-02-28T10:07:04.170Z,1265
2019-02-28T10:08:16.708Z,1200
2019-02-28T10:09:27.643Z,1275
2019-02-28T10:10:40.331Z,1270
2019-02-28T10:11:51.139Z,1280
2019-02-28T10:13:01.781Z,1290
2019-02-28T10:14:12.282Z,1150
2019-02-28T10:15:22.451Z,1305
2019-02-28T10:16:32.820Z,1310
2019-02-28T10:17:44.731Z,1305
2019-02-28T10:18:54.907Z,1265
2019-02-28T10:20:05.238Z,1285
2019-02-28T10:21:15.366Z,935
2019-02-28T10:22:25.753Z,1005
2019-02-28T10:23:36.105Z,1240
2019-02-28T10:24:46.252Z,840
2019-02-28T10:25:56.433Z,1230
2019-02-28T10:27:08.753Z,1325
2019-02-28T10:28:18.902Z,1080
2019-02-28T10:29:29.024Z,1360
2019-02-28T10:30:42.027Z,1370
2019-02-28T10:31:52.175Z,1400
2019-02-28T10:33:02.310Z,1425
2019-02-28T10:34:12.617Z,1365
2019-02-28T10:35:23.425Z,1300
2019-02-28T10:36:33.559Z,1510
2019-02-28T10:37:45.335Z,1340
2019-02-28T10:38:55.458Z,1525
2019-02-28T10:40:07.520Z,1470
2019-02-28T10:41:17.891Z,1510
2019-02-28T10:42:28.021Z,1435
2019-02-28T10:43:38.190Z,1495
2019-02-28T10:44:48.470Z,1370
2019-02-28T10:45:58.604Z,1325
2019-02-28T10:47:08.975Z,1405
2019-02-28T10:48:19.114Z,1300
2019-02-28T10:49:32.330Z,1275
2019-02-28T10:50:43.548Z,1235
2019-02-28T10:51:58.088Z,1230
2019-02-28T10:53:13.970Z,1385
2019-02-28T10:54:25.271Z,1370
2019-02-28T10:55:35.397Z,1395
2019-02-28T10:56:46.332Z,1360
2019-02-28T10:57:56.515Z,1415
2019-02-28T10:59:06.399Z,1515
2019-02-28T11:00:16.527Z,1405
2019-02-28T11:01:26.279Z,1345
2019-02-28T11:02:36.650Z,1465
2019-02-28T11:03:46.790Z,1375
2019-02-28T11:04:56.930Z,1365
2019-02-28T11:06:06.819Z,1230
2019-02-28T11:07:17.167Z,1350
2019-02-28T11:08:29.005Z,1430
2019-02-28T11:09:38.879Z,1270
2019-02-28T11:10:48.753Z,1350
2019-02-28T11:11:58.895Z,1335
2019-02-28T11:13:09.066Z,1320
2019-02-28T11:14:19.423Z,1295
2019-02-28T11:15:29.582Z,1325
2019-02-28T11:16:41.175Z,1195
2019-02-28T11:17:52.154Z,940
2019-02-28T11:19:02.289Z,1355
2019-02-28T11:20:21.757Z,1345
2019-02-28T11:21:35.375Z,1355
2019-02-28T11:22:47.934Z,1205
2019-02-28T11:23:59.833Z,1290
2019-02-28T11:25:11.351Z,995
2019-02-28T11:26:21.491Z,1035
2019-02-28T11:27:32.657Z,1020
2019-02-28T11:28:42.807Z,1055
2019-02-28T11:29:52.968Z,1250
2019-02-28T11:31:03.113Z,1235
2019-02-28T11:32:13.012Z,1140
2019-02-28T11:33:25.291Z,1345
2019-02-28T11:34:35.436Z,1365
2019-02-28T11:35:45.581Z,1545
2019-02-28T11:36:55.714Z,1535
2019-02-28T11:38:07.452Z,1505
2019-02-28T11:39:17.590Z,1595
2019-02-28T11:40:27.507Z,1595
2019-02-28T11:41:37.655Z,1600
2019-02-28T11:42:47.775Z,1600
2019-02-28T11:43:57.899Z,1570
2019-02-28T11:45:08.052Z,1545
2019-02-28T11:46:18.188Z,1415
2019-02-28T11:47:28.081Z,1155
2019-02-28T11:48:38.258Z,1025
2019-02-28T11:49:48.408Z,630
2019-02-28T11:50:58.586Z,730
2019-02-28T11:52:08.725Z,455
2019-02-28T11:53:19.209Z,485
2019-02-28T11:54:29.385Z,795
2019-02-28T11:55:39.555Z,705
2019-02-28T11:56:49.711Z,665
2019-02-28T11:57:59.872Z,845
2019-02-28T11:59:09.984Z,1090
2019-02-28T12:00:20.446Z,1005
2019-02-28T12:01:30.595Z,890
2019-02-28T12:02:41.491Z,735
2019-02-28T12:03:51.644Z,850
2019-02-28T12:05:01.777Z,660
2019-02-28T12:06:14.074Z,800
2019-02-28T12:07:24.199Z,705
2019-02-28T12:08:34.336Z,670
2019-02-28T12:09:44.470Z,645
2019-02-28T12:10:54.629Z,565
2019-02-28T12:12:07.235Z,700
2019-02-28T12:13:24.068Z,665
2019-02-28T12:14:38.703Z,670
2019-02-28T12:15:49.707Z,650
2019-02-28T12:17:03.216Z,620
2019-02-28T12:18:14.533Z,690
2019-02-28T12:19:25.636Z,560
2019-02-28T12:20:36.968Z,490
2019-02-28T12:21:48.432Z,550
2019-02-28T12:22:59.684Z,610
2019-02-28T12:24:10.375Z,565
2019-02-28T12:25:20.282Z,535
2019-02-28T12:26:30.833Z,570
2019-02-28T12:27:40.964Z,615
2019-02-28T12:28:51.098Z,585
2019-02-28T12:30:01.244Z,565
2019-02-28T12:31:11.395Z,550
2019-02-28T12:32:21.767Z,530
2019-02-28T12:33:32.847Z,515
2019-02-28T12:34:42.962Z,500
2019-02-28T12:35:54.702Z,500
2019-02-28T12:37:07.095Z,590
2019-02-28T12:38:17.242Z,635
2019-02-28T12:39:28.535Z,630
2019-02-28T12:40:38.659Z,640
2019-02-28T12:41:49.834Z,645
2019-02-28T12:42:59.971Z,645
2019-02-28T12:44:12.333Z,625
2019-02-28T12:45:26.446Z,605
2019-02-28T12:46:39.150Z,620
2019-02-28T12:47:53.107Z,580
2019-02-28T12:49:03.259Z,520
2019-02-28T12:50:13.405Z,585
2019-02-28T12:51:23.619Z,490
2019-02-28T12:52:33.784Z,520
2019-02-28T12:53:43.947Z,490
2019-02-28T12:54:54.061Z,460
2019-02-28T12:56:04.200Z,515
2019-02-28T12:57:14.358Z,500
2019-02-28T12:58:24.504Z,475
2019-02-28T12:59:37.144Z,460
2019-02-28T13:00:47.371Z,485
2019-02-28T13:01:57.545Z,445
2019-02-28T13:03:09.124Z,420
2019-02-28T13:04:19.412Z,435
2019-02-28T13:05:29.545Z,435
2019-02-28T13:06:39.664Z,425
2019-02-28T13:07:51.036Z,390
2019-02-28T13:09:03.150Z,380
2019-02-28T13:10:13.879Z,370
2019-02-28T13:11:23.997Z,355
2019-02-28T13:12:34.125Z,370
2019-02-28T13:13:44.281Z,355
2019-02-28T13:14:54.828Z,345
2019-02-28T13:16:05.046Z,345
2019-02-28T13:17:16.115Z,335
2019-02-28T13:18:26.329Z,330
2019-02-28T13:19:36.249Z,335
2019-02-28T13:20:46.442Z,320
2019-02-28T13:21:57.590Z,335
2019-02-28T13:23:10.438Z,350
2019-02-28T13:24:20.580Z,340
2019-02-28T13:25:33.962Z,325
2019-02-28T13:26:44.111Z,340
2019-02-28T13:27:55.174Z,330
2019-02-28T13:29:09.990Z,385
2019-02-28T13:30:21.526Z,380
2019-02-28T13:31:37.979Z,355
2019-02-28T13:32:48.915Z,330
2019-02-28T13:34:06.016Z,305
2019-02-28T13:35:18.082Z,310
2019-02-28T13:36:31.495Z,310
2019-02-28T13:37:49.649Z,290
2019-02-28T13:39:05.341Z,280
2019-02-28T13:40:18.819Z,280
2019-02-28T13:41:35.673Z,270
2019-02-28T13:42:50.179Z,270
2019-02-28T13:44:04.936Z,275
2019-02-28T13:45:29.992Z,260
2019-02-28T13:46:43.733Z,245
2019-02-28T13:47:55.953Z,245
2019-02-28T13:49:08.419Z,255
2019-02-28T13:50:21.995Z,265
2019-02-28T13:51:43.188Z,265
2019-02-28T13:53:02.429Z,280
2019-02-28T13:54:16.903Z,290
2019-02-28T13:55:28.778Z,270
2019-02-28T13:56:43.792Z,255
2019-02-28T13:57:56.508Z,255
2019-02-28T13:59:08.046Z,255
2019-02-28T14:00:18.753Z,255
2019-02-28T14:01:30.010Z,245
2019-02-28T14:02:43.434Z,245
2019-02-28T14:03:55.751Z,235
2019-02-28T14:05:11.131Z,235
2019-02-28T14:06:28.382Z,230
2019-02-28T14:07:40.975Z,230
2019-02-28T14:08:54.676Z,225
2019-02-28T14:10:08.003Z,225
2019-02-28T14:11:20.650Z,230
2019-02-28T14:12:33.729Z,230
2019-02-28T14:13:44.654Z,230
2019-02-28T14:14:54.813Z,230
2019-02-28T14:16:04.947Z,230
2019-02-28T14:17:15.093Z,225
2019-02-28T14:18:25.223Z,225
2019-02-28T14:19:35.350Z,225
2019-02-28T14:20:45.466Z,225
2019-02-28T14:21:55.599Z,220
2019-02-28T14:23:05.715Z,220
2019-02-28T14:24:15.859Z,215
2019-02-28T14:25:26.071Z,215
2019-02-28T14:26:51.491Z,215
2019-02-28T14:28:05.261Z,210
2019-02-28T14:29:18.601Z,210
2019-02-28T14:30:30.116Z,205
2019-02-28T14:31:43.306Z,200
2019-02-28T14:32:55.274Z,200
2019-02-28T14:34:05.474Z,195
2019-02-28T14:35:15.590Z,195
2019-02-28T14:36:25.725Z,200
2019-02-28T14:37:35.525Z,195
2019-02-28T14:38:45.642Z,190
2019-02-28T14:39:55.797Z,190
2019-02-28T14:41:06.688Z,185
2019-02-28T14:42:17.763Z,185
2019-02-28T14:43:29.430Z,180
2019-02-28T14:44:42.137Z,180
2019-02-28T14:45:53.584Z,180
2019-02-28T14:47:03.830Z,175
2019-02-28T14:48:14.865Z,170
2019-02-28T14:49:24.999Z,165
2019-02-28T14:50:35.130Z,160
2019-02-28T14:51:45.288Z,155
2019-02-28T14:52:55.432Z,150
2019-02-28T14:54:05.578Z,150
2019-02-28T14:55:15.714Z,145
2019-02-28T14:56:25.888Z,145
2019-02-28T14:57:36.010Z,145
2019-02-28T14:58:46.155Z,145
2019-02-28T14:59:56.281Z,145
2019-02-28T15:01:06.433Z,140
2019-02-28T15:02:16.577Z,140
2019-02-28T15:03:26.719Z,140
2019-02-28T15:04:39.713Z,135
2019-02-28T15:05:52.315Z,135
2019-02-28T15:07:05.592Z,130
2019-02-28T15:08:20.178Z,130
2019-02-28T15:09:31.953Z,125
2019-02-28T15:10:44.027Z,125
2019-02-28T15:11:57.564Z,125
2019-02-28T15:13:09.864Z,120
2019-02-28T15:14:20.020Z,120
2019-02-28T15:15:30.151Z,115
2019-02-28T15:16:40.308Z,115
2019-02-28T15:17:51.683Z,115
2019-02-28T15:19:01.581Z,115
2019-02-28T15:20:15.192Z,110
2019-02-28T15:21:25.335Z,110
2019-02-28T15:22:35.492Z,110
2019-02-28T15:23:45.643Z,110
2019-02-28T15:24:55.551Z,110
2019-02-28T15:26:05.671Z,105
2019-02-28T15:27:15.849Z,105
2019-02-28T15:28:26.005Z,105
2019-02-28T15:29:36.671Z,105
2019-02-28T15:30:46.811Z,105
2019-02-28T15:31:56.983Z,100
2019-02-28T15:33:07.140Z,100
2019-02-28T15:34:17.295Z,100
2019-02-28T15:35:27.443Z,100
2019-02-28T15:36:37.598Z,95
2019-02-28T15:37:47.722Z,95
2019-02-28T15:38:57.869Z,90
2019-02-28T15:40:07.929Z,90
2019-02-28T15:41:18.609Z,85
2019-02-28T15:42:28.760Z,85
2019-02-28T15:43:38.944Z,85
2019-02-28T15:44:49.118Z,80
2019-02-28T15:45:59.249Z,80
2019-02-28T15:47:09.375Z,75
2019-02-28T15:48:19.518Z,75
2019-02-28T15:49:29.424Z,70
2019-02-28T15:50:39.543Z,70
2019-02-28T15:51:49.674Z,70
2019-02-28T15:53:00.063Z,70
2019-02-28T15:54:10.203Z,65
2019-02-28T15:55:20.332Z,65
2019-02-28T15:56:30.667Z,60
2019-02-28T15:57:41.010Z,60
2019-02-28T15:58:52.051Z,55
2019-02-28T16:00:03.453Z,55
2019-02-28T16:01:14.059Z,50
2019-02-28T16:02:24.247Z,50
2019-02-28T16:03:34.387Z,45
2019-02-28T16:04:44.519Z,45
2019-02-28T16:05:56.190Z,40
2019-02-28T16:07:07.929Z,40
2019-02-28T16:08:20.309Z,40
2019-02-28T16:09:31.220Z,35
2019-02-28T16:10:52.578Z,35
2019-02-28T16:12:03.000Z,35
2019-02-28T16:13:13.139Z,35
2019-02-28T16:14:24.781Z,35
2019-02-28T16:15:34.934Z,30
2019-02-28T16:16:45.142Z,30
2019-02-28T16:17:55.283Z,30
2019-02-28T16:19:05.224Z,25
2019-02-28T16:20:15.364Z,25
2019-02-28T16:21:25.518Z,25
2019-02-28T16:22:35.633Z,25
2019-02-28T16:23:45.244Z,20
2019-02-28T16:24:55.371Z,20
2019-02-28T16:26:05.533Z,20
2019-02-28T16:27:15.682Z,20
2019-02-28T16:28:25.833Z,15
2019-02-28T16:29:35.981Z,15
2019-02-28T16:30:46.127Z,15
2019-02-28T16:31:56.292Z,15
2019-02-28T16:33:06.423Z,15
2019-02-28T16:34:18.431Z,10
2019-02-28T16:35:29.078Z,10
2019-02-28T16:36:39.748Z,10
2019-02-28T16:37:49.840Z,10
2019-02-28T16:39:01.531Z,10
2019-02-28T16:40:12.017Z,10
2019-02-28T16:41:22.365Z,10
2019-02-28T16:42:32.861Z,5
2019-02-28T16:43:43.646Z,5
2019-02-28T16:44:54.055Z,5
2019-02-28T16:46:04.456Z,5
2019-02-28T16:47:14.766Z,5
2019-02-28T16:48:25.114Z,0
2019-02-28T16:49:35.462Z,0
2019-02-28T16:50:45.762Z,0
2019-02-28T16:51:56.957Z,0
2019-02-28T16:53:07.522Z,0
2019-02-28T16:54:19.285Z,0
2019-02-28T16:55:34.159Z,0
2019-02-28T16:56:47.239Z,0
2019-02-28T16:57:57.979Z,0
2019-02-28T16:59:08.082Z,0
2019-02-28T17:00:18.665Z,0